NCAR-RAP Real-Time Weather Data

Output produced by METARs form (12 August 2020  18:42 UTC)
found at http://weather.rap.ucar.edu/surface/
 
KMSP 121825Z 17018G31KT 9SM VCTS RA FEW060 BKN110CB OVC150 19/17 A3000 RMK AO2 PK WND 14042/1754 LTG DSNT SW AND NW PRESRR VCTS NW MOV E P0003 T01940172
KMSP 121753Z 15026G43KT 9SM RA BKN110CB OVC150 19/16 A2998 RMK AO2 PK WND 14043/1747 LTG DSNT SW AND W TSE02 SLP149 CB ALQDS MOV E P0016 60034 T01890156 10217 20178 58039
KMSP 121735Z 14025G38KT 9SM RA FEW070 BKN095 OVC110CB 19/18 A3002 RMK AO2 PK WND 14038/1733 LTG DSNT SE-W TSE02 PRESFR CB ALQDS MOV E P0012 T01940183
KMSP 121708Z 15011KT 7SM VCTS RA BKN100CB OVC120 18/18 A3008 RMK AO2 LTG DSNT SE-W TSE02 VCTS S-W MOV E P0004 T01830183
KMSP 121653Z 15010KT 8SM TSRA BKN110CB OVC150 19/18 A3009 RMK AO2 LTG DSNT S-W TSB47 SLP186 TS OHD MOV E P0012 T01890178
KMSP 121603Z 14007KT 9SM -RA FEW080 OVC110CB 19/18 A3011 RMK AO2 LTG DSNT ALQDS CB OHD MOV E P0003 T01940178
KMSP 121553Z 00000KT 8SM VCTS RA SCT080 OVC110CB 19/17 A3012 RMK AO2 LTG DSNT SW-N RAB12 SLP196 VCTS SW-NW MOV E P0006 T01940172
KMSP 121543Z 25003KT 9SM VCTS RA OVC110CB 19/17 A3012 RMK AO2 LTG DSNT SW-N RAB12 VCTS SW-NW MOV E P0003 T01940167
KMSP 121453Z 29007KT 10SM FEW042 BKN085 BKN150 BKN250 21/16 A3009 RMK AO2 LTG DSNT S-NW SLP187 T02110156 53024
KMSP 121425Z 27009KT 10SM FEW060 BKN150 BKN250 22/15 A3008 RMK AO2 LTG DSNT W PRESRR T02170150
KMSP 121353Z 17012KT 10SM SCT150 BKN250 21/15 A3002 RMK AO2 SLP162 T02110150
KMSP 121253Z 16008KT 10SM SCT250 19/15 A2999 RMK AO2 SLP153 T01940150
KMSP 121153Z 15007KT 10SM FEW250 18/14 A3002 RMK AO2 SLP163 T01780139 10222 20172 55006
KMSP 121053Z 14004KT 10SM FEW250 18/14 A3002 RMK AO2 SLP162 T01780139
KMSP 120953Z 15006KT 10SM CLR 18/14 A3003 RMK AO2 SLP165 T01830139
KMSP 120853Z 15005KT 10SM CLR 18/14 A3004 RMK AO2 SLP168 T01830144 53004
KMSP 120753Z 13003KT 10SM CLR 19/15 A3002 RMK AO2 SLP162 T01890150
KMSP 120653Z 23003KT 10SM FEW120 21/14 A3003 RMK AO2 SLP164 T02110144
KMSP 120553Z 20004KT 10SM FEW120 22/14 A3003 RMK AO2 SLP164 T02220144 10267 20222 402890156 53018
KMSP 120453Z 19006KT 10SM FEW150 23/16 A3001 RMK AO2 SLP157 T02280156
KMSP 120353Z 15005KT 10SM FEW140 23/16 A2999 RMK AO2 SLP150 T02280161
KMSP 120253Z 16005KT 10SM SCT140 24/16 A2997 RMK AO2 SLP145 T02440156 53001
KMSP 120153Z 17007KT 10SM FEW140 SCT160 BKN200 26/15 A2996 RMK AO2 SLP141 ACC ALQDS T02560150
KMSP 120053Z 19007KT 10SM SCT140 BKN170 BKN250 26/14 A2997 RMK AO2 SLP145 ACC ALQDS T02610144
KMSP 112353Z 21008KT 10SM SCT170 BKN200 BKN250 27/14 A2997 RMK AO2 SLP145 ACC ALQDS T02670144 10289 20267 55002
KMSP 112253Z 21008G20KT 10SM FEW180 SCT250 SCT300 28/13 A2997 RMK AO2 SLP144 T02780133
KMSP 112153Z 20008KT 10SM FEW200 FEW250 28/14 A2997 RMK AO2 SLP146 T02830139
KMSP 112053Z 21009KT 10SM FEW250 28/13 A2998 RMK AO2 SLP147 T02830133 56006
KMSP 111953Z 22013G18KT 10SM SCT250 28/12 A2998 RMK AO2 SLP149 T02780122
KMSP 111853Z 22012KT 10SM SCT250 27/14 A2999 RMK AO2 SLP150 T02720144
KMSP 111753Z 23007KT 10SM FEW250 27/14 A2999 RMK AO2 SLP153 T02670144 10267 20161 50004
KMSP 111653Z 27011KT 10SM FEW250 26/14 A3000 RMK AO2 SLP157 T02560139
KMSP 111553Z 25007KT 10SM FEW250 24/14 A3000 RMK AO2 SLP154 T02390144
KMSP 111453Z VRB03KT 10SM CLR 22/14 A2998 RMK AO2 SLP150 T02170144 50003
KMSP 111353Z 23005KT 10SM CLR 20/14 A2999 RMK AO2 SLP151 T02000139
KMSP 111253Z 24006KT 10SM CLR 18/13 A2999 RMK AO2 SLP152 T01780128
KMSP 111153Z 22005KT 10SM CLR 16/12 A2998 RMK AO2 SLP148 T01610122 10183 20156 53005
KMSP 111053Z 25005KT 10SM CLR 17/12 A2996 RMK AO2 SLP144 T01670122
KMSP 110953Z 24003KT 10SM CLR 17/12 A2996 RMK AO2 SLP140 T01670122
KMSP 110853Z 23005KT 10SM CLR 17/13 A2996 RMK AO2 SLP143 T01670133 53005
KMSP 110753Z 25003KT 10SM CLR 17/13 A2995 RMK AO2 SLP141 T01670133
KMSP 110653Z 25005KT 10SM CLR 17/13 A2995 RMK AO2 SLP138 T01720133
KMSP 110553Z 23005KT 10SM CLR 18/13 A2995 RMK AO2 SLP138 T01830133 10256 20183 402610178 51003
KMSP 110453Z 24005KT 10SM CLR 19/12 A2995 RMK AO2 SLP138 T01890122
KMSP 110353Z 00000KT 10SM CLR 20/11 A2994 RMK AO2 SLP136 T02000111
KMSP 110253Z 25005KT 10SM CLR 22/11 A2994 RMK AO2 SLP134 T02170106 53011
KMSP 110153Z 26004KT 10SM FEW065 23/10 A2992 RMK AO2 SLP128 T02280100
KMSP 110053Z 29006KT 10SM FEW065 24/09 A2992 RMK AO2 SLP127 T02390094
KMSP 102353Z 28011KT 10SM FEW070 FEW250 26/09 A2991 RMK AO2 SLP123 T02560089 10261 20233 55002
KMSP 102253Z 30007KT 10SM FEW070 FEW250 25/11 A2990 RMK AO2 SLP122 T02500111
KMSP 102153Z 31008KT 10SM FEW070 SCT250 26/10 A2990 RMK AO2 SLP122 T02610100
KMSP 102053Z 31009KT 10SM FEW060 BKN250 26/09 A2991 RMK AO2 SLP124 T02560089 56019
KMSP 101953Z 30004KT 10SM BKN250 24/12 A2992 RMK AO2 SLP129 T02440117
KMSP 101853Z VRB04KT 10SM BKN220 BKN250 24/12 A2995 RMK AO2 SLP140 T02390122